createdAt,value
2019-05-16T00:01:34.582Z,75.00
2019-05-16T00:04:04.598Z,74.50
2019-05-16T00:06:35.639Z,74.20
2019-05-16T00:09:07.997Z,74.00
2019-05-16T00:11:38.542Z,73.80
2019-05-16T00:14:08.663Z,74.00
2019-05-16T00:16:38.699Z,74.10
2019-05-16T00:19:09.082Z,74.00
2019-05-16T00:21:39.226Z,73.90
2019-05-16T00:24:09.139Z,74.20
2019-05-16T00:26:39.091Z,74.50
2019-05-16T00:29:10.101Z,74.50
2019-05-16T00:31:40.115Z,74.60
2019-05-16T00:34:10.540Z,74.50
2019-05-16T00:36:40.454Z,74.80
2019-05-16T00:39:10.578Z,75.00
2019-05-16T00:41:40.490Z,74.80
2019-05-16T00:44:10.507Z,74.90
2019-05-16T00:46:40.422Z,74.90
2019-05-16T00:49:13.308Z,75.10
2019-05-16T00:51:43.221Z,75.40
2019-05-16T00:54:13.230Z,75.70
2019-05-16T00:56:43.098Z,75.50
2019-05-16T00:59:13.067Z,75.60
2019-05-16T01:01:42.983Z,76.00
2019-05-16T01:04:12.890Z,75.90
2019-05-16T01:06:43.120Z,75.80
2019-05-16T01:09:13.035Z,75.80
2019-05-16T01:11:42.949Z,75.70
2019-05-16T01:14:12.967Z,75.70
2019-05-16T01:16:42.881Z,75.50
2019-05-16T01:19:13.922Z,75.50
2019-05-16T01:21:44.963Z,75.70
2019-05-16T01:24:15.392Z,75.70
2019-05-16T01:26:45.232Z,75.50
2019-05-16T01:29:15.093Z,75.60
2019-05-16T01:31:45.446Z,75.50
2019-05-16T01:34:15.358Z,75.50
2019-05-16T01:36:45.263Z,76.00
2019-05-16T01:39:18.567Z,75.60
2019-05-16T01:41:48.482Z,75.60
2019-05-16T01:44:18.483Z,75.70
2019-05-16T01:46:48.517Z,75.50
2019-05-16T01:49:18.882Z,75.60
2019-05-16T01:51:49.371Z,75.80
2019-05-16T01:54:19.386Z,75.80
2019-05-16T01:56:49.711Z,75.80
2019-05-16T01:59:19.626Z,75.90
2019-05-16T02:01:49.644Z,76.00
2019-05-16T02:04:19.660Z,75.80
2019-05-16T02:06:54.463Z,75.90
2019-05-16T02:09:21.116Z,75.80
2019-05-16T02:11:51.146Z,75.80
2019-05-16T02:14:21.068Z,75.90
2019-05-16T02:16:51.077Z,76.20
2019-05-16T02:19:21.402Z,76.30
2019-05-16T02:21:51.317Z,76.60
2019-05-16T02:24:21.232Z,76.90
2019-05-16T02:26:52.407Z,77.20
2019-05-16T02:29:22.598Z,77.50
2019-05-16T02:31:52.451Z,77.70
2019-05-16T02:34:22.637Z,77.80
2019-05-16T02:37:10.301Z,77.70
2019-05-16T02:39:24.099Z,77.70
2019-05-16T02:41:54.019Z,77.70
2019-05-16T02:44:24.625Z,77.70
2019-05-16T02:46:55.076Z,77.10
2019-05-16T02:49:24.927Z,77.10
2019-05-16T02:51:54.801Z,77.60
2019-05-16T02:54:24.716Z,77.20
2019-05-16T02:56:54.633Z,77.20
2019-05-16T02:59:24.547Z,77.40
2019-05-16T03:01:54.460Z,77.50
2019-05-16T03:04:24.791Z,77.60
2019-05-16T03:07:07.485Z,77.60
2019-05-16T03:09:37.313Z,77.40
2019-05-16T03:12:10.557Z,77.40
2019-05-16T03:14:41.683Z,77.20
2019-05-16T03:17:21.176Z,77.40
2019-05-16T03:19:51.065Z,77.40
2019-05-16T03:22:22.027Z,77.60
2019-05-16T03:24:52.164Z,77.60
2019-05-16T03:27:22.076Z,77.20
2019-05-16T03:29:51.992Z,77.00
2019-05-16T03:32:24.175Z,77.10
2019-05-16T03:34:55.129Z,76.90
2019-05-16T03:37:25.534Z,76.90
2019-05-16T03:39:55.440Z,77.20
2019-05-16T03:42:25.458Z,77.50
2019-05-16T03:44:55.375Z,77.80
2019-05-16T03:47:25.288Z,78.00
2019-05-16T03:49:55.203Z,78.10
2019-05-16T03:52:25.156Z,78.80
2019-05-16T03:54:55.237Z,78.00
2019-05-16T03:57:25.256Z,77.80
2019-05-16T03:59:55.168Z,77.70
2019-05-16T04:02:25.083Z,77.60
2019-05-16T04:04:55.104Z,77.60
2019-05-16T04:07:25.021Z,77.70
2019-05-16T04:09:55.045Z,78.20
2019-05-16T04:12:25.035Z,78.40
2019-05-16T04:14:54.965Z,78.80
2019-05-16T04:17:24.880Z,78.50
2019-05-16T04:19:54.796Z,78.60
2019-05-16T04:22:24.703Z,78.60
2019-05-16T04:24:55.509Z,79.20
2019-05-16T04:27:25.462Z,78.40
2019-05-16T04:29:55.684Z,78.70
2019-05-16T04:32:25.597Z,78.40
2019-05-16T04:34:55.613Z,78.40
2019-05-16T04:37:26.385Z,78.30
2019-05-16T04:39:56.677Z,78.60
2019-05-16T04:42:26.586Z,78.60
2019-05-16T04:44:56.506Z,78.80
2019-05-16T04:47:26.341Z,79.20
2019-05-16T04:49:56.229Z,78.30
2019-05-16T04:52:26.247Z,78.60
2019-05-16T04:54:56.162Z,78.20
2019-05-16T04:57:26.075Z,77.70
2019-05-16T04:59:56.096Z,76.40
2019-05-16T05:02:26.110Z,76.60
2019-05-16T05:04:56.026Z,76.30
2019-05-16T05:07:25.940Z,75.80
2019-05-16T05:09:55.857Z,75.50
2019-05-16T05:12:25.778Z,76.70
2019-05-16T05:14:55.689Z,77.30
2019-05-16T05:17:25.721Z,75.40
2019-05-16T05:19:57.255Z,75.50
2019-05-16T05:22:27.169Z,74.90
2019-05-16T05:24:57.433Z,74.80
2019-05-16T05:27:27.585Z,74.00
2019-05-16T05:29:57.530Z,73.80
2019-05-16T05:32:27.444Z,73.20
2019-05-16T05:34:59.668Z,73.40
2019-05-16T05:37:29.872Z,73.70
2019-05-16T05:40:01.079Z,74.00
2019-05-16T05:42:33.247Z,74.40
2019-05-16T05:45:05.389Z,74.40
2019-05-16T05:47:35.435Z,75.50
2019-05-16T05:50:06.633Z,75.70
2019-05-16T05:52:36.678Z,75.80
2019-05-16T05:55:06.802Z,74.00
2019-05-16T05:57:56.185Z,73.50
2019-05-16T06:00:26.101Z,73.10
2019-05-16T06:02:56.428Z,73.80
2019-05-16T06:05:26.340Z,72.00
2019-05-16T06:07:56.255Z,71.90
2019-05-16T06:10:26.272Z,71.70
2019-05-16T06:12:56.391Z,72.60
2019-05-16T06:15:26.290Z,71.50
2019-05-16T06:17:56.323Z,70.90
2019-05-16T06:20:26.242Z,71.00
2019-05-16T06:22:56.153Z,72.30
2019-05-16T06:25:26.172Z,70.40
2019-05-16T06:27:56.086Z,70.20
2019-05-16T06:30:25.936Z,70.80
2019-05-16T06:32:55.915Z,69.90
2019-05-16T06:35:25.932Z,69.50
2019-05-16T06:37:56.051Z,69.00
2019-05-16T06:40:25.954Z,70.30
2019-05-16T06:42:56.291Z,67.80
2019-05-16T06:45:26.207Z,66.20
2019-05-16T06:47:56.123Z,66.10
2019-05-16T06:50:26.035Z,66.60
2019-05-16T06:52:55.954Z,66.80
2019-05-16T06:55:25.867Z,66.40
2019-05-16T06:57:57.367Z,65.10
2019-05-16T07:00:29.918Z,64.50
2019-05-16T07:03:20.549Z,66.00
2019-05-16T07:05:50.640Z,65.00
2019-05-16T07:08:21.655Z,66.00
2019-05-16T07:10:51.575Z,62.60
2019-05-16T07:13:21.483Z,63.80
2019-05-16T07:15:51.399Z,64.50
2019-05-16T07:18:21.479Z,63.40
2019-05-16T07:20:51.946Z,62.20
2019-05-16T07:23:22.270Z,61.80
2019-05-16T07:25:52.186Z,61.60
2019-05-16T07:28:22.203Z,60.70
2019-05-16T07:30:52.219Z,60.80
2019-05-16T07:33:22.135Z,60.40
2019-05-16T07:35:52.151Z,61.40
2019-05-16T07:38:22.305Z,59.50
2019-05-16T07:40:52.186Z,58.70
2019-05-16T07:43:24.987Z,61.50
2019-05-16T07:45:54.780Z,57.30
2019-05-16T07:48:24.679Z,56.60
2019-05-16T07:50:54.613Z,56.50
2019-05-16T07:53:24.524Z,57.50
2019-05-16T07:55:54.440Z,56.60
2019-05-16T07:58:24.354Z,55.20
2019-05-16T08:01:02.838Z,54.40
2019-05-16T08:03:25.926Z,55.50
2019-05-16T08:05:55.842Z,56.00
2019-05-16T08:08:25.754Z,55.50
2019-05-16T08:10:55.680Z,54.40
2019-05-16T08:13:25.690Z,53.10
2019-05-16T08:15:55.626Z,51.70
2019-05-16T08:18:25.516Z,51.80
2019-05-16T08:20:55.539Z,49.60
2019-05-16T08:23:25.437Z,49.70
2019-05-16T08:25:55.773Z,52.10
2019-05-16T08:28:25.695Z,47.20
2019-05-16T08:30:55.706Z,45.00
2019-05-16T08:33:25.625Z,43.40
2019-05-16T08:35:56.654Z,44.80
2019-05-16T08:38:26.577Z,41.40
2019-05-16T08:41:07.974Z,41.90
2019-05-16T08:43:31.549Z,43.30
2019-05-16T08:46:01.855Z,44.80
2019-05-16T08:48:32.792Z,45.10
2019-05-16T08:51:03.109Z,42.40
2019-05-16T08:53:34.053Z,40.30
2019-05-16T08:56:04.173Z,38.50
2019-05-16T08:58:34.087Z,38.00
2019-05-16T09:01:04.007Z,39.10
2019-05-16T09:03:33.917Z,40.40
2019-05-16T09:06:04.856Z,39.50
2019-05-16T09:08:34.821Z,37.90
2019-05-16T09:11:27.027Z,38.60
2019-05-16T09:13:37.075Z,39.50
2019-05-16T09:16:07.896Z,38.90
2019-05-16T09:18:40.968Z,38.90
2019-05-16T09:21:09.568Z,39.20
2019-05-16T09:23:39.489Z,37.50
2019-05-16T09:26:09.704Z,36.40
2019-05-16T09:28:52.330Z,38.70
2019-05-16T09:31:22.230Z,37.90
2019-05-16T09:33:52.148Z,37.30
2019-05-16T09:36:22.062Z,35.70
2019-05-16T09:38:51.975Z,36.30
2019-05-16T09:41:21.909Z,37.20
2019-05-16T09:43:51.909Z,35.40
2019-05-16T09:46:21.822Z,36.30
2019-05-16T09:49:11.602Z,36.10
2019-05-16T09:51:23.291Z,35.60
2019-05-16T09:53:53.106Z,35.40
2019-05-16T09:56:23.121Z,34.30
2019-05-16T09:58:53.021Z,35.70
2019-05-16T10:01:23.052Z,35.50
2019-05-16T10:03:53.069Z,33.70
2019-05-16T10:06:23.192Z,33.60
2019-05-16T10:08:53.411Z,32.80
2019-05-16T10:11:23.330Z,33.60
2019-05-16T10:13:53.241Z,34.10
2019-05-16T10:16:23.150Z,34.70
2019-05-16T10:18:53.172Z,36.00
2019-05-16T10:21:23.003Z,34.30
2019-05-16T10:23:53.308Z,35.70
2019-05-16T10:26:23.639Z,33.80
2019-05-16T10:28:53.657Z,34.60
2019-05-16T10:31:37.719Z,34.00
2019-05-16T10:33:57.694Z,32.70
2019-05-16T10:36:28.151Z,35.70
2019-05-16T10:38:59.021Z,37.00
2019-05-16T10:41:29.778Z,36.90
2019-05-16T10:43:59.795Z,37.10
2019-05-16T10:46:29.710Z,34.30
2019-05-16T10:48:59.626Z,34.30
2019-05-16T10:51:29.586Z,37.60
2019-05-16T10:54:09.018Z,37.90
2019-05-16T10:56:31.110Z,35.70
2019-05-16T10:59:38.375Z,36.50
2019-05-16T11:01:32.579Z,37.10
2019-05-16T11:04:03.516Z,39.80
2019-05-16T11:06:33.439Z,37.70
2019-05-16T11:09:06.391Z,39.60
2019-05-16T11:11:36.845Z,39.90
2019-05-16T11:14:09.117Z,41.90
2019-05-16T11:16:38.417Z,41.90
2019-05-16T11:19:17.215Z,43.00
2019-05-16T11:21:39.986Z,41.20
2019-05-16T11:24:12.581Z,40.40
2019-05-16T11:26:41.464Z,38.40
2019-05-16T11:29:11.369Z,39.90
2019-05-16T11:31:41.284Z,40.80
2019-05-16T11:34:11.118Z,41.80
2019-05-16T11:36:41.116Z,39.80
2019-05-16T11:39:11.167Z,39.70
2019-05-16T11:41:41.454Z,39.60
2019-05-16T11:44:11.369Z,39.70
2019-05-16T11:46:41.285Z,40.50
2019-05-16T11:49:11.129Z,40.70
2019-05-16T11:51:40.998Z,37.90
2019-05-16T11:54:10.928Z,38.40
2019-05-16T11:56:40.842Z,40.00
2019-05-16T11:59:10.756Z,38.90
2019-05-16T12:01:40.677Z,40.00
2019-05-16T12:04:10.587Z,39.20
2019-05-16T12:06:40.809Z,39.50
2019-05-16T12:09:10.706Z,38.90
2019-05-16T12:11:40.740Z,39.00
2019-05-16T12:14:10.655Z,41.10
2019-05-16T12:16:41.492Z,41.30
2019-05-16T12:19:11.407Z,40.40
2019-05-16T12:21:41.630Z,40.00
2019-05-16T12:24:11.652Z,39.80
2019-05-16T12:26:41.667Z,39.40
2019-05-16T12:29:11.561Z,40.40
2019-05-16T12:31:54.265Z,40.00
2019-05-16T12:34:13.046Z,38.70
2019-05-16T12:36:42.962Z,38.80
2019-05-16T12:39:13.286Z,39.30
2019-05-16T12:41:43.202Z,39.20
2019-05-16T12:44:13.121Z,40.40
2019-05-16T12:46:43.030Z,39.10
2019-05-16T12:49:12.947Z,39.40
2019-05-16T12:51:42.848Z,38.70
2019-05-16T12:54:13.184Z,39.50
2019-05-16T12:56:43.205Z,40.10
2019-05-16T12:59:20.401Z,40.10
2019-05-16T13:01:44.670Z,41.40
2019-05-16T13:04:18.987Z,40.30
2019-05-16T13:06:47.176Z,40.60
2019-05-16T13:09:18.530Z,40.50
2019-05-16T13:11:49.038Z,40.80
2019-05-16T13:14:19.057Z,41.70
2019-05-16T13:16:48.970Z,42.00
2019-05-16T13:19:18.886Z,41.70
2019-05-16T13:21:49.209Z,41.90
2019-05-16T13:24:19.136Z,41.40
2019-05-16T13:26:50.192Z,41.60
2019-05-16T13:29:20.082Z,42.30
2019-05-16T13:31:51.006Z,42.60
2019-05-16T13:34:20.934Z,41.90
2019-05-16T13:36:50.853Z,41.20
2019-05-16T13:39:20.767Z,41.10
2019-05-16T13:41:50.787Z,42.20
2019-05-16T13:44:23.095Z,42.40
2019-05-16T13:46:52.352Z,42.70
2019-05-16T13:49:22.267Z,42.00
2019-05-16T13:51:52.285Z,43.20
2019-05-16T13:54:22.183Z,42.60
2019-05-16T13:56:52.216Z,42.80
2019-05-16T13:59:22.130Z,40.80
2019-05-16T14:01:52.354Z,40.60
2019-05-16T14:04:22.174Z,41.40
2019-05-16T14:06:55.482Z,42.40
2019-05-16T14:09:23.529Z,42.50
2019-05-16T14:11:53.447Z,43.50
2019-05-16T14:14:34.757Z,43.40
2019-05-16T14:16:55.016Z,41.10
2019-05-16T14:19:27.319Z,41.20
2019-05-16T14:21:57.507Z,41.20
2019-05-16T14:24:28.129Z,42.90
2019-05-16T14:26:59.387Z,41.50
2019-05-16T14:29:29.302Z,41.40
2019-05-16T14:31:59.201Z,41.00
2019-05-16T14:34:29.540Z,41.60
2019-05-16T14:36:59.437Z,43.00
2019-05-16T14:39:29.472Z,42.60
2019-05-16T14:41:59.388Z,42.00
2019-05-16T14:44:30.532Z,41.60
2019-05-16T14:47:00.445Z,41.50
2019-05-16T14:49:30.469Z,41.90
2019-05-16T14:52:00.889Z,41.80
2019-05-16T14:54:30.804Z,41.70
2019-05-16T14:57:01.561Z,42.60
2019-05-16T14:59:31.965Z,42.70
2019-05-16T15:02:01.989Z,43.40
2019-05-16T15:04:31.897Z,44.30
2019-05-16T15:07:01.812Z,43.50
2019-05-16T15:09:31.727Z,42.80
2019-05-16T15:12:01.573Z,42.50
2019-05-16T15:14:31.456Z,42.00
2019-05-16T15:17:01.369Z,42.90
2019-05-16T15:19:31.390Z,42.40
2019-05-16T15:22:02.570Z,42.30
2019-05-16T15:24:33.059Z,42.30
2019-05-16T15:27:02.959Z,42.20
2019-05-16T15:29:32.888Z,43.30
2019-05-16T15:32:02.803Z,43.60
2019-05-16T15:34:34.587Z,43.40
2019-05-16T15:37:04.173Z,44.90
2019-05-16T15:39:37.135Z,44.50
2019-05-16T15:42:08.165Z,45.30
2019-05-16T15:44:37.087Z,44.50
2019-05-16T15:47:08.144Z,43.10
2019-05-16T15:49:38.464Z,42.80
2019-05-16T15:52:08.368Z,43.40
2019-05-16T15:54:38.286Z,45.00
2019-05-16T15:57:08.505Z,44.20
2019-05-16T15:59:38.523Z,42.80
2019-05-16T16:02:08.541Z,44.20
2019-05-16T16:04:41.219Z,45.60
2019-05-16T16:07:11.546Z,42.80
2019-05-16T16:09:41.443Z,42.60
2019-05-16T16:12:11.458Z,43.80
2019-05-16T16:14:41.806Z,43.80
2019-05-16T16:17:11.816Z,43.60
2019-05-16T16:19:41.731Z,44.20
2019-05-16T16:22:11.749Z,45.10
2019-05-16T16:24:41.664Z,45.90
2019-05-16T16:27:11.580Z,45.60
2019-05-16T16:29:41.414Z,44.00
2019-05-16T16:32:11.510Z,45.80
2019-05-16T16:34:41.428Z,46.00
2019-05-16T16:37:12.981Z,45.40
2019-05-16T16:39:42.997Z,45.40
2019-05-16T16:42:12.824Z,45.90
2019-05-16T16:44:42.723Z,43.40
2019-05-16T16:47:13.253Z,45.70
2019-05-16T16:49:43.174Z,43.90
2019-05-16T16:52:13.083Z,45.30
2019-05-16T16:54:42.997Z,44.30
2019-05-16T16:57:12.912Z,43.50
2019-05-16T16:59:42.829Z,43.50
2019-05-16T17:02:12.658Z,43.10
2019-05-16T17:04:42.965Z,43.30
2019-05-16T17:07:12.887Z,43.20
2019-05-16T17:09:44.231Z,44.50
2019-05-16T17:12:14.142Z,44.00
2019-05-16T17:14:46.329Z,44.60
2019-05-16T17:17:17.647Z,44.70
2019-05-16T17:19:47.503Z,45.40
2019-05-16T17:22:20.841Z,45.00
2019-05-16T17:24:49.143Z,45.70
2019-05-16T17:27:19.060Z,45.20
2019-05-16T17:29:49.385Z,45.30
2019-05-16T17:32:19.399Z,45.50
2019-05-16T17:34:49.417Z,45.60
2019-05-16T17:37:19.332Z,46.10
2019-05-16T17:39:49.349Z,46.00
2019-05-16T17:42:19.374Z,45.70
2019-05-16T17:44:49.998Z,46.60
2019-05-16T17:47:19.912Z,46.40
2019-05-16T17:49:49.929Z,46.70
2019-05-16T17:52:19.844Z,47.00
2019-05-16T17:54:49.759Z,47.80
2019-05-16T17:57:19.674Z,47.20
2019-05-16T17:59:49.590Z,47.70
2019-05-16T18:02:19.695Z,47.50
2019-05-16T18:04:50.545Z,47.50
2019-05-16T18:07:20.462Z,47.60
2019-05-16T18:09:50.465Z,48.20
2019-05-16T18:12:20.397Z,47.60
2019-05-16T18:14:50.562Z,47.50
2019-05-16T18:17:20.557Z,48.10
2019-05-16T18:19:50.444Z,48.60
2019-05-16T18:22:20.298Z,48.70
2019-05-16T18:24:52.905Z,48.80
2019-05-16T18:27:22.836Z,48.00
2019-05-16T18:29:52.765Z,47.50
2019-05-16T18:32:22.680Z,47.70
2019-05-16T18:34:53.006Z,47.40
2019-05-16T18:37:22.920Z,48.60
2019-05-16T18:39:52.834Z,48.90
2019-05-16T18:42:22.748Z,48.70
2019-05-16T18:44:52.670Z,49.30
2019-05-16T18:47:22.681Z,48.20
2019-05-16T18:49:52.584Z,48.00
2019-05-16T18:52:22.512Z,48.40
2019-05-16T18:55:11.881Z,48.70
2019-05-16T18:57:41.838Z,49.00
2019-05-16T19:00:11.733Z,48.80
2019-05-16T19:02:41.711Z,49.10
2019-05-16T19:05:11.645Z,49.10
2019-05-16T19:07:43.443Z,49.00
2019-05-16T19:10:13.419Z,49.60
2019-05-16T19:12:43.435Z,49.10
2019-05-16T19:15:13.350Z,49.00
2019-05-16T19:17:43.675Z,50.30
2019-05-16T19:20:13.590Z,51.40
2019-05-16T19:23:02.961Z,52.50
2019-05-16T19:25:32.875Z,53.30
2019-05-16T19:28:02.899Z,54.00
2019-05-16T19:30:33.933Z,55.00
2019-05-16T19:33:03.848Z,55.50
2019-05-16T19:35:34.275Z,56.20
2019-05-16T19:38:06.465Z,56.30
2019-05-16T19:40:37.548Z,55.90
2019-05-16T19:43:07.492Z,56.00
2019-05-16T19:45:37.928Z,55.90
2019-05-16T19:48:07.843Z,55.00
2019-05-16T19:50:37.758Z,54.90
2019-05-16T19:53:07.978Z,54.40
2019-05-16T19:55:38.102Z,54.00
2019-05-16T19:58:08.122Z,54.00
2019-05-16T20:00:38.031Z,54.20
2019-05-16T20:03:08.046Z,53.80
2019-05-16T20:05:39.192Z,53.60
2019-05-16T20:08:12.009Z,53.30
2019-05-16T20:10:41.177Z,53.30
2019-05-16T20:13:11.087Z,53.10
2019-05-16T20:15:41.707Z,53.40
2019-05-16T20:18:13.222Z,53.10
2019-05-16T20:20:44.109Z,53.60
2019-05-16T20:23:16.579Z,54.20
2019-05-16T20:25:47.032Z,53.90
2019-05-16T20:28:18.398Z,53.70
2019-05-16T20:30:48.686Z,54.00
2019-05-16T20:33:18.597Z,54.40
2019-05-16T20:35:49.025Z,54.50
2019-05-16T20:38:18.939Z,54.90
2019-05-16T20:40:48.771Z,54.60
2019-05-16T20:43:19.076Z,54.80
2019-05-16T20:45:49.093Z,54.90
2019-05-16T20:48:19.011Z,55.20
2019-05-16T20:50:49.182Z,55.30
2019-05-16T20:53:19.381Z,55.70
2019-05-16T20:55:49.774Z,56.20
2019-05-16T20:58:20.919Z,56.60
2019-05-16T21:00:50.839Z,56.90
2019-05-16T21:03:20.673Z,56.80
2019-05-16T21:05:50.518Z,57.00
2019-05-16T21:08:20.523Z,56.80
2019-05-16T21:10:50.494Z,56.60
2019-05-16T21:13:20.409Z,56.10
2019-05-16T21:15:50.325Z,56.50
2019-05-16T21:18:20.242Z,56.20
2019-05-16T21:20:50.061Z,56.30
2019-05-16T21:23:19.966Z,56.50
2019-05-16T21:25:50.597Z,56.80
2019-05-16T21:28:20.614Z,56.90
2019-05-16T21:30:50.530Z,56.60
2019-05-16T21:33:20.444Z,56.40
2019-05-16T21:35:50.359Z,56.50
2019-05-16T21:38:20.275Z,56.80
2019-05-16T21:40:50.188Z,57.10
2019-05-16T21:43:20.105Z,57.90
2019-05-16T21:45:50.018Z,57.30
2019-05-16T21:48:19.861Z,57.60
2019-05-16T21:50:49.745Z,57.20
2019-05-16T21:53:19.659Z,56.40
2019-05-16T21:55:49.576Z,56.10
2019-05-16T21:58:19.398Z,56.20
2019-05-16T22:00:51.350Z,56.20
2019-05-16T22:03:21.367Z,56.00
2019-05-16T22:05:51.487Z,55.60
2019-05-16T22:08:21.505Z,55.60
2019-05-16T22:10:51.419Z,55.80
2019-05-16T22:13:21.743Z,56.30
2019-05-16T22:15:51.658Z,56.40
2019-05-16T22:18:21.881Z,56.40
2019-05-16T22:20:56.984Z,56.40
2019-05-16T22:23:27.650Z,55.70
2019-05-16T22:25:57.564Z,55.70
2019-05-16T22:28:30.011Z,56.40
2019-05-16T22:30:58.943Z,56.80
2019-05-16T22:33:28.847Z,57.40
2019-05-16T22:35:58.862Z,57.60
2019-05-16T22:38:30.212Z,58.00
2019-05-16T22:41:00.227Z,57.90
2019-05-16T22:43:30.347Z,58.00
2019-05-16T22:46:00.262Z,58.00
2019-05-16T22:48:31.303Z,57.80
2019-05-16T22:51:01.135Z,58.60
2019-05-16T22:53:31.031Z,58.20
2019-05-16T22:56:00.947Z,58.60
2019-05-16T22:58:30.859Z,58.80
2019-05-16T23:01:00.878Z,58.80
2019-05-16T23:03:30.711Z,58.70
2019-05-16T23:06:00.607Z,58.90
2019-05-16T23:08:30.520Z,58.90
2019-05-16T23:11:00.434Z,59.10
2019-05-16T23:13:30.349Z,59.20
2019-05-16T23:16:00.263Z,59.30
2019-05-16T23:18:30.178Z,59.50
2019-05-16T23:21:00.094Z,59.80
2019-05-16T23:23:30.007Z,59.60
2019-05-16T23:25:59.923Z,59.40
2019-05-16T23:28:30.964Z,59.30
2019-05-16T23:31:00.881Z,59.20
2019-05-16T23:33:30.794Z,59.20
2019-05-16T23:36:00.709Z,59.30
2019-05-16T23:38:30.624Z,59.40
2019-05-16T23:41:00.538Z,59.40
2019-05-16T23:43:30.452Z,59.30
2019-05-16T23:46:00.674Z,59.40
2019-05-16T23:48:30.589Z,59.20
2019-05-16T23:51:00.505Z,59.40
2019-05-16T23:53:30.422Z,59.00
2019-05-16T23:56:00.261Z,59.10
2019-05-16T23:58:30.249Z,59.30
